You are not logged in, Click here to log in
ICAO: RJCC Country: 日本北海道千歲市與苫小牧市交界
Latitude: 42.7876 Longitude: 141.679
Total Arrivals: 84 Total Departures: 84
Latest Arrival: JL3049 (RJAA-RJCC)LI WEN. Tu Latest Departure: MM122 (RJCC-RJBB)LI WEN. Tu
Scenery:
METAR : RJCC 171300Z 34010KT 9999 FEW025 BKN/// 11/05 Q1010 RMK 1CU025 A2984

新千歳空港 CTS